YR259 LZIB-ZZZZ
Flight info
| Callsign | YR259 |
|---|---|
| Flight time | N/A |
| Altitude | 2000 |
| Route | VFR |
| Aircraft | C172/L-SFG/S |
Departure
| Time | 2026-04-28 07:59 |
|---|---|
| Airport | M. R. Štefánik Airport (LZIB) |
Arrival
| Time | N/A |
|---|---|
| Airport | ZZZZ |
| Time | Latitude | Longitude | Altitude | Speed | Heading |
|---|---|---|---|---|---|
| 2026-04-28 07:49 | 48.16454 | 17.19754 | 430 ft | 0 kts | 233° |
| 2026-04-28 07:55 | 48.16449 | 17.19737 | 430 ft | 4 kts | 244° |
| 2026-04-28 07:55 | 48.16420 | 17.19760 | 430 ft | 6 kts | 123° |
| 2026-04-28 07:55 | 48.16384 | 17.19843 | 430 ft | 12 kts | 123° |
| 2026-04-28 07:55 | 48.16320 | 17.19873 | 429 ft | 9 kts | 221° |
| 2026-04-28 07:56 | 48.16278 | 17.19818 | 430 ft | 10 kts | 217° |
| 2026-04-28 07:56 | 48.16193 | 17.19800 | 430 ft | 15 kts | 154° |
| 2026-04-28 07:56 | 48.16115 | 17.19917 | 430 ft | 13 kts | 113° |
| 2026-04-28 07:56 | 48.16111 | 17.19986 | 428 ft | 0 kts | 43° |
| 2026-04-28 07:57 | 48.16136 | 17.20022 | 427 ft | 22 kts | 41° |
| 2026-04-28 07:57 | 48.16389 | 17.20399 | 446 ft | 71 kts | 43° |
| 2026-04-28 07:58 | 48.16768 | 17.20953 | 602 ft | 75 kts | 44° |
| 2026-04-28 07:58 | 48.17149 | 17.21487 | 732 ft | 77 kts | 41° |
| 2026-04-28 07:58 | 48.17540 | 17.22031 | 842 ft | 79 kts | 42° |
| 2026-04-28 07:58 | 48.17930 | 17.22584 | 984 ft | 76 kts | 46° |
| 2026-04-28 07:59 | 48.18291 | 17.23169 | 1123 ft | 78 kts | 49° |
| 2026-04-28 07:59 | 48.18651 | 17.23771 | 1316 ft | 77 kts | 45° |
| 2026-04-28 07:59 | 48.19022 | 17.24351 | 1472 ft | 81 kts | 48° |
| 2026-04-28 07:59 | 48.19414 | 17.25036 | 1500 ft | 92 kts | 51° |
| 2026-04-28 08:00 | 48.19804 | 17.25841 | 1510 ft | 96 kts | 57° |
| 2026-04-28 08:00 | 48.20274 | 17.26536 | 1519 ft | 97 kts | 30° |
| 2026-04-28 08:00 | 48.20940 | 17.26699 | 1473 ft | 104 kts | 355° |
| 2026-04-28 08:00 | 48.21605 | 17.26290 | 1477 ft | 103 kts | 333° |
| 2026-04-28 08:01 | 48.22192 | 17.25693 | 1465 ft | 101 kts | 332° |
| 2026-04-28 08:01 | 48.22775 | 17.25109 | 1453 ft | 100 kts | 330° |
| 2026-04-28 08:01 | 48.23339 | 17.24530 | 1479 ft | 98 kts | 326° |
| 2026-04-28 08:01 | 48.23864 | 17.23891 | 1493 ft | 99 kts | 318° |
| 2026-04-28 08:02 | 48.24181 | 17.22955 | 1490 ft | 103 kts | 287° |
| 2026-04-28 08:02 | 48.24115 | 17.21871 | 1477 ft | 107 kts | 244° |
| 2026-04-28 08:02 | 48.23733 | 17.20910 | 1466 ft | 107 kts | 243° |
| 2026-04-28 08:02 | 48.23297 | 17.20007 | 1457 ft | 107 kts | 229° |
| 2026-04-28 08:03 | 48.22802 | 17.19181 | 1484 ft | 105 kts | 227° |
| 2026-04-28 08:03 | 48.22289 | 17.18398 | 1485 ft | 106 kts | 223° |
| 2026-04-28 08:03 | 48.21759 | 17.17606 | 1492 ft | 106 kts | 226° |
| 2026-04-28 08:03 | 48.21282 | 17.16780 | 1500 ft | 107 kts | 230° |
| 2026-04-28 08:04 | 48.20779 | 17.15915 | 1451 ft | 110 kts | 227° |
| 2026-04-28 08:04 | 48.20250 | 17.15101 | 1459 ft | 108 kts | 225° |
| 2026-04-28 08:04 | 48.19716 | 17.14300 | 1415 ft | 110 kts | 225° |
| 2026-04-28 08:04 | 48.19182 | 17.13507 | 1460 ft | 106 kts | 222° |
| 2026-04-28 08:05 | 48.18634 | 17.12773 | 1462 ft | 106 kts | 220° |
| 2026-04-28 08:05 | 48.18079 | 17.12093 | 1505 ft | 104 kts | 211° |
| 2026-04-28 08:05 | 48.17387 | 17.11820 | 1501 ft | 103 kts | 178° |
| 2026-04-28 08:06 | 48.16132 | 17.12694 | 1430 ft | 101 kts | 142° |
| 2026-04-28 08:06 | 48.15557 | 17.13285 | 1438 ft | 99 kts | 145° |
| 2026-04-28 08:06 | 48.15023 | 17.13891 | 1510 ft | 86 kts | 134° |
| 2026-04-28 08:06 | 48.14574 | 17.14447 | 1542 ft | 83 kts | 136° |
| 2026-04-28 08:07 | 48.14217 | 17.15067 | 1556 ft | 78 kts | 103° |
| 2026-04-28 08:07 | 48.14261 | 17.15859 | 1504 ft | 82 kts | 79° |
| 2026-04-28 08:07 | 48.14372 | 17.16751 | 1366 ft | 90 kts | 74° |
| 2026-04-28 08:07 | 48.14617 | 17.17624 | 1194 ft | 85 kts | 62° |
| 2026-04-28 08:08 | 48.14925 | 17.18292 | 967 ft | 75 kts | 48° |
| 2026-04-28 08:08 | 48.15289 | 17.18799 | 750 ft | 70 kts | 45° |
| 2026-04-28 08:08 | 48.15609 | 17.19261 | 626 ft | 61 kts | 44° |
| 2026-04-28 08:08 | 48.15911 | 17.19702 | 516 ft | 58 kts | 43° |
| 2026-04-28 08:09 | 48.16191 | 17.20102 | 438 ft | 54 kts | 44° |
| 2026-04-28 08:09 | 48.16383 | 17.20383 | 427 ft | 25 kts | 42° |
| 2026-04-28 08:09 | 48.16486 | 17.20526 | 427 ft | 18 kts | 43° |
| 2026-04-28 08:09 | 48.16583 | 17.20566 | 427 ft | 15 kts | 314° |
| 2026-04-28 08:10 | 48.16622 | 17.20506 | 427 ft | 0 kts | 316° |
| 2026-04-28 08:10 | 48.16625 | 17.20502 | 427 ft | 4 kts | 316° |
| 2026-04-28 08:10 | 48.16671 | 17.20431 | 427 ft | 12 kts | 314° |
| 2026-04-28 08:11 | 48.16681 | 17.20338 | 427 ft | 13 kts | 216° |
| 2026-04-28 08:11 | 48.16582 | 17.20211 | 427 ft | 22 kts | 220° |
| 2026-04-28 08:11 | 48.16464 | 17.20059 | 427 ft | 18 kts | 216° |
| 2026-04-28 08:11 | 48.16385 | 17.19959 | 428 ft | 11 kts | 220° |